Terminal Aerodrome Forecast
Issued by NWS Sterling, VA

Current Version | Previous Version | Text Only | Print | Product List | Glossary Off
Versions: 1 2 3 4 5 6 7 8 9 10 11 12 13 14 15 16 17 18

000
FTUS41 KLWX 301729
TAFMRB
TAF
KMRB 301729Z 3018/3118 19010KT P6SM FEW045
     FM302000 21010KT P6SM VCTS BKN045CB
     FM310100 21006KT P6SM BKN050
     FM310700 18004KT 3SM BR SCT010 BKN060
     FM311300 VRB03KT P6SM BKN040=

USA.gov is the U.S. government's official web portal to all federal, state and local government web resources and services.